CQX weather

Chatham Municipal Airport
Chatham, Massachusetts, United States

Public forecast

Using degrees Fahrenheit for public forecast. Weather courtesy of forecast.io.

METAR (pilot weather report)

Retrieved 2018/07/15 22:24 UTC (6 minutes ago):

KCQX 152224Z AUTO VRB03KT 10SM SCT009 19/16 A2997 RMK AO2 T01940161 TSNO

TAF (pilot weather forecast)

Closest forecast is Barnstable Municipal Boardman Polando Field, 13.1 nm (24.3 km) W. Retrieved 2018/07/15 18:24 UTC (4 hours ago):

TAF KHYA 151721Z 1518/1618 18006KT P6SM BKN080 FM160500 00000KT 5SM BR BKN070 FM160700 00000KT 1SM BR OVC003 FM160900 00000KT 3/4SM BR OVC003 FM161100 19003KT 2SM BR OVC003 FM161200 19004KT P6SM OVC003 FM161600 18007KT P6SM SCT008